sensor_id;sensor_type;location;lat;lon;timestamp;P1;durP1;ratioP1;P2;durP2;ratioP2
25980;SDS011;13772;52.996;9.124;2022-08-21T10:38:28;5.95;;;1.65;;
25980;SDS011;13772;52.996;9.124;2022-08-21T10:41:02;8.65;;;1.80;;
25980;SDS011;13772;52.996;9.124;2022-08-21T10:46:01;6.15;;;1.90;;
25980;SDS011;13772;52.996;9.124;2022-08-21T10:48:39;7.20;;;1.45;;
25980;SDS011;13772;52.996;9.124;2022-08-21T10:51:59;5.78;;;1.60;;
25980;SDS011;13772;52.996;9.124;2022-08-21T10:53:59;10.90;;;2.05;;
25980;SDS011;13772;52.996;9.124;2022-08-21T10:56:30;8.77;;;1.85;;
25980;SDS011;13772;52.996;9.124;2022-08-21T10:58:59;6.10;;;1.50;;
25980;SDS011;13772;52.996;9.124;2022-08-21T11:01:29;6.18;;;1.25;;
25980;SDS011;13772;52.996;9.124;2022-08-21T11:06:42;7.72;;;1.45;;
25980;SDS011;13772;52.996;9.124;2022-08-21T11:09:12;6.97;;;1.65;;
25980;SDS011;13772;52.996;9.124;2022-08-21T11:11:45;6.53;;;1.65;;
25980;SDS011;13772;52.996;9.124;2022-08-21T11:14:26;7.97;;;1.73;;
25980;SDS011;13772;52.996;9.124;2022-08-21T11:17:02;8.25;;;1.50;;
25980;SDS011;13772;52.996;9.124;2022-08-21T11:19:45;6.88;;;1.48;;
25980;SDS011;13772;52.996;9.124;2022-08-21T11:22:13;5.03;;;1.42;;
25980;SDS011;13772;52.996;9.124;2022-08-21T11:24:57;7.28;;;1.58;;
25980;SDS011;13772;52.996;9.124;2022-08-21T11:27:28;8.32;;;1.70;;
25980;SDS011;13772;52.996;9.124;2022-08-21T11:29:56;6.55;;;1.90;;
25980;SDS011;13772;52.996;9.124;2022-08-21T11:32:29;7.68;;;1.67;;
25980;SDS011;13772;52.996;9.124;2022-08-21T11:40:31;5.50;;;1.95;;
25980;SDS011;13772;52.996;9.124;2022-08-21T11:45:32;9.27;;;1.70;;
25980;SDS011;13772;52.996;9.124;2022-08-21T11:50:27;7.67;;;2.10;;
25980;SDS011;13772;52.996;9.124;2022-08-21T11:52:56;7.80;;;1.67;;
25980;SDS011;13772;52.996;9.124;2022-08-21T11:55:39;4.87;;;1.80;;
25980;SDS011;13772;52.996;9.124;2022-08-21T11:58:08;4.32;;;1.30;;
25980;SDS011;13772;52.996;9.124;2022-08-21T12:00:40;4.35;;;1.35;;
25980;SDS011;13772;52.996;9.124;2022-08-21T12:03:14;4.63;;;1.60;;
25980;SDS011;13772;52.996;9.124;2022-08-21T12:05:41;3.90;;;1.27;;
25980;SDS011;13772;52.996;9.124;2022-08-21T12:08:14;7.65;;;1.63;;
25980;SDS011;13772;52.996;9.124;2022-08-21T12:10:41;5.28;;;1.40;;
25980;SDS011;13772;52.996;9.124;2022-08-21T12:13:09;4.50;;;1.13;;
25980;SDS011;13772;52.996;9.124;2022-08-21T12:15:36;3.83;;;1.13;;
25980;SDS011;13772;52.996;9.124;2022-08-21T12:18:05;5.40;;;1.02;;
25980;SDS011;13772;52.996;9.124;2022-08-21T12:23:14;4.07;;;1.20;;
25980;SDS011;13772;52.996;9.124;2022-08-21T12:25:46;5.95;;;1.40;;
25980;SDS011;13772;52.996;9.124;2022-08-21T12:28:15;4.90;;;1.27;;
25980;SDS011;13772;52.996;9.124;2022-08-21T12:30:42;4.07;;;1.20;;
25980;SDS011;13772;52.996;9.124;2022-08-21T12:35:45;5.15;;;1.50;;
25980;SDS011;13772;52.996;9.124;2022-08-21T12:38:21;4.97;;;1.55;;
25980;SDS011;13772;52.996;9.124;2022-08-21T12:40:52;6.55;;;1.65;;
25980;SDS011;13772;52.996;9.124;2022-08-21T12:43:19;4.68;;;1.17;;
25980;SDS011;13772;52.996;9.124;2022-08-21T12:45:47;4.57;;;1.33;;
25980;SDS011;13772;52.996;9.124;2022-08-21T12:48:18;5.18;;;1.50;;
25980;SDS011;13772;52.996;9.124;2022-08-21T12:50:46;3.97;;;1.30;;
25980;SDS011;13772;52.996;9.124;2022-08-21T12:53:25;6.78;;;1.88;;
25980;SDS011;13772;52.996;9.124;2022-08-21T12:55:51;5.03;;;1.45;;
25980;SDS011;13772;52.996;9.124;2022-08-21T12:58:23;5.00;;;1.42;;
25980;SDS011;13772;52.996;9.124;2022-08-21T13:01:05;5.50;;;1.50;;
25980;SDS011;13772;52.996;9.124;2022-08-21T13:03:31;5.85;;;1.40;;
25980;SDS011;13772;52.996;9.124;2022-08-21T13:05:59;7.23;;;1.70;;
25980;SDS011;13772;52.996;9.124;2022-08-21T13:08:24;8.13;;;1.50;;
25980;SDS011;13772;52.996;9.124;2022-08-21T13:10:56;4.53;;;1.00;;
25980;SDS011;13772;52.996;9.124;2022-08-21T13:13:24;5.85;;;1.30;;
25980;SDS011;13772;52.996;9.124;2022-08-21T13:15:50;5.85;;;1.17;;
25980;SDS011;13772;52.996;9.124;2022-08-21T13:18:22;6.10;;;1.55;;
25980;SDS011;13772;52.996;9.124;2022-08-21T13:20:47;5.25;;;1.67;;
25980;SDS011;13772;52.996;9.124;2022-08-21T13:23:31;4.95;;;1.35;;
25980;SDS011;13772;52.996;9.124;2022-08-21T13:25:56;6.25;;;1.52;;
25980;SDS011;13772;52.996;9.124;2022-08-21T13:28:22;5.45;;;1.30;;
25980;SDS011;13772;52.996;9.124;2022-08-21T13:30:49;4.18;;;1.23;;
25980;SDS011;13772;52.996;9.124;2022-08-21T13:33:15;4.68;;;1.40;;
25980;SDS011;13772;52.996;9.124;2022-08-21T13:38:12;4.72;;;1.50;;
25980;SDS011;13772;52.996;9.124;2022-08-21T13:40:41;3.78;;;1.20;;
25980;SDS011;13772;52.996;9.124;2022-08-21T13:43:16;5.40;;;1.50;;
25980;SDS011;13772;52.996;9.124;2022-08-21T13:45:43;4.30;;;1.50;;
25980;SDS011;13772;52.996;9.124;2022-08-21T13:48:09;4.93;;;1.45;;
25980;SDS011;13772;52.996;9.124;2022-08-21T13:50:35;5.28;;;1.60;;
25980;SDS011;13772;52.996;9.124;2022-08-21T13:53:05;6.50;;;1.58;;
25980;SDS011;13772;52.996;9.124;2022-08-21T13:55:41;6.40;;;1.63;;
25980;SDS011;13772;52.996;9.124;2022-08-21T13:58:07;7.90;;;1.60;;
25980;SDS011;13772;52.996;9.124;2022-08-21T14:00:34;7.55;;;1.70;;
25980;SDS011;13772;52.996;9.124;2022-08-21T14:03:08;4.57;;;1.25;;
25980;SDS011;13772;52.996;9.124;2022-08-21T14:05:35;4.68;;;1.60;;
25980;SDS011;13772;52.996;9.124;2022-08-21T14:08:06;3.83;;;1.52;;
25980;SDS011;13772;52.996;9.124;2022-08-21T14:10:31;5.10;;;1.58;;
25980;SDS011;13772;52.996;9.124;2022-08-21T14:13:04;5.10;;;1.52;;
25980;SDS011;13772;52.996;9.124;2022-08-21T14:15:31;5.35;;;1.20;;
25980;SDS011;13772;52.996;9.124;2022-08-21T14:18:16;4.90;;;1.40;;
25980;SDS011;13772;52.996;9.124;2022-08-21T14:20:42;5.22;;;1.20;;
25980;SDS011;13772;52.996;9.124;2022-08-21T14:23:07;5.05;;;1.50;;
25980;SDS011;13772;52.996;9.124;2022-08-21T14:25:38;6.38;;;1.42;;
25980;SDS011;13772;52.996;9.124;2022-08-21T14:28:09;5.47;;;1.45;;
25980;SDS011;13772;52.996;9.124;2022-08-21T14:30:37;4.18;;;1.23;;
25980;SDS011;13772;52.996;9.124;2022-08-21T14:33:04;4.50;;;1.35;;
25980;SDS011;13772;52.996;9.124;2022-08-21T14:35:29;7.03;;;1.60;;
25980;SDS011;13772;52.996;9.124;2022-08-21T14:37:54;4.95;;;1.38;;
25980;SDS011;13772;52.996;9.124;2022-08-21T14:40:22;5.72;;;1.50;;
25980;SDS011;13772;52.996;9.124;2022-08-21T14:42:47;5.30;;;1.30;;
25980;SDS011;13772;52.996;9.124;2022-08-21T14:45:27;6.10;;;1.35;;
25980;SDS011;13772;52.996;9.124;2022-08-21T14:47:53;5.68;;;1.55;;
25980;SDS011;13772;52.996;9.124;2022-08-21T14:50:18;4.47;;;1.60;;
25980;SDS011;13772;52.996;9.124;2022-08-21T14:52:43;5.05;;;1.33;;
25980;SDS011;13772;52.996;9.124;2022-08-21T14:55:10;10.07;;;1.45;;
25980;SDS011;13772;52.996;9.124;2022-08-21T14:57:38;6.43;;;1.67;;
25980;SDS011;13772;52.996;9.124;2022-08-21T15:00:04;5.80;;;1.30;;
25980;SDS011;13772;52.996;9.124;2022-08-21T15:02:30;5.38;;;1.17;;
25980;SDS011;13772;52.996;9.124;2022-08-21T15:04:55;6.03;;;1.57;;
25980;SDS011;13772;52.996;9.124;2022-08-21T15:07:20;5.78;;;1.55;;
25980;SDS011;13772;52.996;9.124;2022-08-21T15:09:45;7.53;;;1.67;;
25980;SDS011;13772;52.996;9.124;2022-08-21T15:12:10;5.17;;;1.33;;
25980;SDS011;13772;52.996;9.124;2022-08-21T15:14:38;2.92;;;1.25;;
25980;SDS011;13772;52.996;9.124;2022-08-21T15:17:05;3.80;;;1.40;;
25980;SDS011;13772;52.996;9.124;2022-08-21T15:19:31;5.50;;;1.80;;
25980;SDS011;13772;52.996;9.124;2022-08-21T15:21:56;4.63;;;1.40;;
25980;SDS011;13772;52.996;9.124;2022-08-21T15:24:21;4.30;;;1.40;;
25980;SDS011;13772;52.996;9.124;2022-08-21T15:26:46;5.57;;;1.50;;
25980;SDS011;13772;52.996;9.124;2022-08-21T15:29:12;5.68;;;1.58;;
25980;SDS011;13772;52.996;9.124;2022-08-21T15:31:40;4.22;;;1.45;;
25980;SDS011;13772;52.996;9.124;2022-08-21T15:34:13;4.45;;;1.40;;
25980;SDS011;13772;52.996;9.124;2022-08-21T15:36:39;4.33;;;1.47;;
25980;SDS011;13772;52.996;9.124;2022-08-21T15:39:04;3.85;;;1.67;;
25980;SDS011;13772;52.996;9.124;2022-08-21T15:41:29;7.35;;;1.70;;
25980;SDS011;13772;52.996;9.124;2022-08-21T15:43:54;4.50;;;1.87;;
25980;SDS011;13772;52.996;9.124;2022-08-21T15:46:20;4.25;;;1.58;;
25980;SDS011;13772;52.996;9.124;2022-08-21T15:48:45;4.90;;;1.45;;
25980;SDS011;13772;52.996;9.124;2022-08-21T15:51:11;6.15;;;1.52;;
25980;SDS011;13772;52.996;9.124;2022-08-21T15:53:36;6.40;;;1.48;;
25980;SDS011;13772;52.996;9.124;2022-08-21T15:56:04;5.40;;;1.60;;
25980;SDS011;13772;52.996;9.124;2022-08-21T15:58:30;4.43;;;1.55;;
25980;SDS011;13772;52.996;9.124;2022-08-21T16:00:58;7.28;;;2.17;;
25980;SDS011;13772;52.996;9.124;2022-08-21T16:03:23;4.88;;;1.52;;
25980;SDS011;13772;52.996;9.124;2022-08-21T16:05:50;7.97;;;1.60;;
25980;SDS011;13772;52.996;9.124;2022-08-21T16:08:17;7.20;;;1.48;;
25980;SDS011;13772;52.996;9.124;2022-08-21T16:10:42;6.40;;;1.60;;
25980;SDS011;13772;52.996;9.124;2022-08-21T16:13:11;3.45;;;1.20;;
25980;SDS011;13772;52.996;9.124;2022-08-21T16:15:39;5.63;;;1.50;;
25980;SDS011;13772;52.996;9.124;2022-08-21T16:18:05;7.85;;;1.98;;
25980;SDS011;13772;52.996;9.124;2022-08-21T16:20:30;4.80;;;1.50;;
25980;SDS011;13772;52.996;9.124;2022-08-21T16:22:56;6.53;;;1.60;;
25980;SDS011;13772;52.996;9.124;2022-08-21T16:25:21;4.20;;;1.40;;
25980;SDS011;13772;52.996;9.124;2022-08-21T16:27:48;4.32;;;1.15;;
25980;SDS011;13772;52.996;9.124;2022-08-21T16:30:15;7.18;;;1.70;;
25980;SDS011;13772;52.996;9.124;2022-08-21T16:32:40;5.45;;;1.45;;
25980;SDS011;13772;52.996;9.124;2022-08-21T16:35:06;7.38;;;1.50;;
25980;SDS011;13772;52.996;9.124;2022-08-21T16:37:31;7.65;;;1.63;;
25980;SDS011;13772;52.996;9.124;2022-08-21T16:39:57;4.75;;;1.65;;
25980;SDS011;13772;52.996;9.124;2022-08-21T16:42:23;5.22;;;1.55;;
25980;SDS011;13772;52.996;9.124;2022-08-21T16:44:50;7.63;;;1.60;;
25980;SDS011;13772;52.996;9.124;2022-08-21T16:47:15;4.68;;;1.50;;
25980;SDS011;13772;52.996;9.124;2022-08-21T16:49:40;4.75;;;1.45;;
25980;SDS011;13772;52.996;9.124;2022-08-21T16:52:05;3.37;;;1.27;;
25980;SDS011;13772;52.996;9.124;2022-08-21T16:54:31;6.25;;;1.75;;
25980;SDS011;13772;52.996;9.124;2022-08-21T16:56:56;6.60;;;1.75;;
25980;SDS011;13772;52.996;9.124;2022-08-21T16:59:22;5.75;;;1.67;;
25980;SDS011;13772;52.996;9.124;2022-08-21T17:01:47;5.35;;;1.75;;
25980;SDS011;13772;52.996;9.124;2022-08-21T17:04:13;8.40;;;1.70;;
25980;SDS011;13772;52.996;9.124;2022-08-21T17:06:38;10.70;;;1.55;;
25980;SDS011;13772;52.996;9.124;2022-08-21T17:09:03;4.63;;;1.50;;
25980;SDS011;13772;52.996;9.124;2022-08-21T17:11:30;3.15;;;1.27;;
25980;SDS011;13772;52.996;9.124;2022-08-21T17:13:56;5.68;;;1.35;;
25980;SDS011;13772;52.996;9.124;2022-08-21T17:16:22;5.13;;;1.92;;
25980;SDS011;13772;52.996;9.124;2022-08-21T17:18:48;5.05;;;1.30;;
25980;SDS011;13772;52.996;9.124;2022-08-21T17:21:14;5.35;;;1.58;;
25980;SDS011;13772;52.996;9.124;2022-08-21T17:23:39;6.97;;;1.67;;
25980;SDS011;13772;52.996;9.124;2022-08-21T17:26:04;5.00;;;1.88;;
25980;SDS011;13772;52.996;9.124;2022-08-21T17:28:30;7.75;;;1.67;;
25980;SDS011;13772;52.996;9.124;2022-08-21T17:30:58;4.13;;;1.33;;
25980;SDS011;13772;52.996;9.124;2022-08-21T17:33:26;7.10;;;1.48;;
25980;SDS011;13772;52.996;9.124;2022-08-21T17:35:53;5.40;;;1.33;;
25980;SDS011;13772;52.996;9.124;2022-08-21T17:38:18;7.55;;;1.65;;
25980;SDS011;13772;52.996;9.124;2022-08-21T17:40:44;3.97;;;1.50;;
25980;SDS011;13772;52.996;9.124;2022-08-21T17:43:10;5.25;;;1.92;;
25980;SDS011;13772;52.996;9.124;2022-08-21T17:45:36;6.15;;;1.90;;
25980;SDS011;13772;52.996;9.124;2022-08-21T17:48:01;4.43;;;1.75;;
25980;SDS011;13772;52.996;9.124;2022-08-21T17:50:27;6.03;;;1.40;;
25980;SDS011;13772;52.996;9.124;2022-08-21T17:52:52;7.75;;;1.70;;
25980;SDS011;13772;52.996;9.124;2022-08-21T17:55:17;8.18;;;1.70;;
25980;SDS011;13772;52.996;9.124;2022-08-21T17:57:44;7.45;;;1.90;;
25980;SDS011;13772;52.996;9.124;2022-08-21T18:00:12;5.70;;;1.42;;
25980;SDS011;13772;52.996;9.124;2022-08-21T18:02:39;6.75;;;1.50;;
25980;SDS011;13772;52.996;9.124;2022-08-21T18:05:06;7.07;;;1.17;;
25980;SDS011;13772;52.996;9.124;2022-08-21T18:07:32;5.10;;;1.40;;
25980;SDS011;13772;52.996;9.124;2022-08-21T18:09:57;5.60;;;1.65;;
25980;SDS011;13772;52.996;9.124;2022-08-21T18:12:23;5.82;;;1.40;;
25980;SDS011;13772;52.996;9.124;2022-08-21T18:14:48;5.28;;;1.35;;
25980;SDS011;13772;52.996;9.124;2022-08-21T18:17:15;8.07;;;1.50;;
25980;SDS011;13772;52.996;9.124;2022-08-21T18:19:42;5.43;;;1.40;;
25980;SDS011;13772;52.996;9.124;2022-08-21T18:22:07;5.07;;;1.40;;
25980;SDS011;13772;52.996;9.124;2022-08-21T18:24:33;4.70;;;1.70;;
25980;SDS011;13772;52.996;9.124;2022-08-21T18:26:58;9.18;;;1.80;;
25980;SDS011;13772;52.996;9.124;2022-08-21T18:29:23;8.98;;;1.92;;
25980;SDS011;13772;52.996;9.124;2022-08-21T18:31:49;9.98;;;2.45;;
25980;SDS011;13772;52.996;9.124;2022-08-21T18:34:25;7.78;;;1.90;;
25980;SDS011;13772;52.996;9.124;2022-08-21T18:36:50;8.55;;;2.08;;
25980;SDS011;13772;52.996;9.124;2022-08-21T18:39:16;9.55;;;2.40;;
25980;SDS011;13772;52.996;9.124;2022-08-21T18:41:41;10.57;;;2.22;;
25980;SDS011;13772;52.996;9.124;2022-08-21T18:44:07;8.50;;;2.35;;
25980;SDS011;13772;52.996;9.124;2022-08-21T18:46:33;7.82;;;2.33;;
25980;SDS011;13772;52.996;9.124;2022-08-21T18:48:58;5.57;;;1.70;;
25980;SDS011;13772;52.996;9.124;2022-08-21T18:51:23;7.93;;;2.38;;
25980;SDS011;13772;52.996;9.124;2022-08-21T18:53:49;12.45;;;2.80;;
25980;SDS011;13772;52.996;9.124;2022-08-21T18:56:15;6.45;;;1.85;;
25980;SDS011;13772;52.996;9.124;2022-08-21T18:58:41;9.13;;;2.55;;
25980;SDS011;13772;52.996;9.124;2022-08-21T19:01:08;10.25;;;2.55;;
25980;SDS011;13772;52.996;9.124;2022-08-21T19:03:33;12.30;;;2.40;;
25980;SDS011;13772;52.996;9.124;2022-08-21T19:05:58;9.55;;;2.63;;
25980;SDS011;13772;52.996;9.124;2022-08-21T19:08:23;8.38;;;2.67;;
25980;SDS011;13772;52.996;9.124;2022-08-21T19:10:53;7.65;;;2.42;;
25980;SDS011;13772;52.996;9.124;2022-08-21T19:13:19;12.18;;;2.78;;
25980;SDS011;13772;52.996;9.124;2022-08-21T19:15:45;11.38;;;2.78;;
25980;SDS011;13772;52.996;9.124;2022-08-21T19:18:14;12.15;;;2.88;;
25980;SDS011;13772;52.996;9.124;2022-08-21T19:20:40;12.35;;;2.35;;
25980;SDS011;13772;52.996;9.124;2022-08-21T19:23:07;8.73;;;2.50;;
25980;SDS011;13772;52.996;9.124;2022-08-21T19:25:32;7.57;;;2.40;;
25980;SDS011;13772;52.996;9.124;2022-08-21T19:27:58;9.35;;;2.40;;
25980;SDS011;13772;52.996;9.124;2022-08-21T19:30:24;11.73;;;2.58;;
25980;SDS011;13772;52.996;9.124;2022-08-21T19:32:49;7.95;;;2.20;;
25980;SDS011;13772;52.996;9.124;2022-08-21T19:35:15;7.35;;;2.10;;
25980;SDS011;13772;52.996;9.124;2022-08-21T19:37:42;10.02;;;2.47;;
25980;SDS011;13772;52.996;9.124;2022-08-21T19:40:07;10.38;;;2.42;;
25980;SDS011;13772;52.996;9.124;2022-08-21T19:42:33;8.18;;;2.13;;
25980;SDS011;13772;52.996;9.124;2022-08-21T19:44:59;7.82;;;2.30;;
25980;SDS011;13772;52.996;9.124;2022-08-21T19:47:24;10.85;;;2.45;;
25980;SDS011;13772;52.996;9.124;2022-08-21T19:49:50;10.98;;;2.80;;
25980;SDS011;13772;52.996;9.124;2022-08-21T19:52:17;12.05;;;2.90;;
25980;SDS011;13772;52.996;9.124;2022-08-21T19:54:42;10.15;;;2.42;;
25980;SDS011;13772;52.996;9.124;2022-08-21T19:57:07;7.07;;;2.47;;
25980;SDS011;13772;52.996;9.124;2022-08-21T19:59:34;11.60;;;2.88;;
25980;SDS011;13772;52.996;9.124;2022-08-21T20:01:59;9.82;;;2.80;;
25980;SDS011;13772;52.996;9.124;2022-08-21T20:04:25;11.00;;;2.30;;
25980;SDS011;13772;52.996;9.124;2022-08-21T20:06:50;6.35;;;2.30;;
25980;SDS011;13772;52.996;9.124;2022-08-21T20:09:16;7.97;;;2.17;;
25980;SDS011;13772;52.996;9.124;2022-08-21T20:11:43;11.75;;;2.20;;
25980;SDS011;13772;52.996;9.124;2022-08-21T20:14:09;7.93;;;2.47;;
25980;SDS011;13772;52.996;9.124;2022-08-21T20:16:35;8.13;;;2.47;;
25980;SDS011;13772;52.996;9.124;2022-08-21T20:19:01;9.98;;;2.50;;
25980;SDS011;13772;52.996;9.124;2022-08-21T20:21:28;8.85;;;2.47;;
25980;SDS011;13772;52.996;9.124;2022-08-21T20:23:54;10.18;;;2.20;;
25980;SDS011;13772;52.996;9.124;2022-08-21T20:26:19;9.23;;;2.38;;
25980;SDS011;13772;52.996;9.124;2022-08-21T20:28:45;9.05;;;2.70;;
25980;SDS011;13772;52.996;9.124;2022-08-21T20:31:10;11.18;;;2.45;;
25980;SDS011;13772;52.996;9.124;2022-08-21T20:33:36;11.13;;;2.55;;
25980;SDS011;13772;52.996;9.124;2022-08-21T20:36:01;9.18;;;2.75;;
25980;SDS011;13772;52.996;9.124;2022-08-21T20:38:26;7.80;;;2.15;;
25980;SDS011;13772;52.996;9.124;2022-08-21T20:40:52;9.18;;;2.45;;
25980;SDS011;13772;52.996;9.124;2022-08-21T20:43:18;8.02;;;2.40;;
25980;SDS011;13772;52.996;9.124;2022-08-21T20:45:44;10.85;;;2.65;;
25980;SDS011;13772;52.996;9.124;2022-08-21T20:48:14;9.70;;;2.63;;
25980;SDS011;13772;52.996;9.124;2022-08-21T20:50:43;11.73;;;3.35;;
25980;SDS011;13772;52.996;9.124;2022-08-21T20:53:15;10.80;;;2.60;;
25980;SDS011;13772;52.996;9.124;2022-08-21T20:55:44;10.82;;;2.58;;
25980;SDS011;13772;52.996;9.124;2022-08-21T20:58:11;8.00;;;2.22;;
25980;SDS011;13772;52.996;9.124;2022-08-21T21:00:38;11.77;;;2.67;;
25980;SDS011;13772;52.996;9.124;2022-08-21T21:03:05;11.93;;;2.40;;
25980;SDS011;13772;52.996;9.124;2022-08-21T21:05:37;9.95;;;2.72;;
25980;SDS011;13772;52.996;9.124;2022-08-21T21:08:26;10.35;;;2.47;;
25980;SDS011;13772;52.996;9.124;2022-08-21T21:10:53;12.38;;;2.95;;
25980;SDS011;13772;52.996;9.124;2022-08-21T21:13:21;8.27;;;2.45;;
25980;SDS011;13772;52.996;9.124;2022-08-21T21:15:50;10.20;;;2.58;;
25980;SDS011;13772;52.996;9.124;2022-08-21T21:18:28;8.23;;;2.47;;
25980;SDS011;13772;52.996;9.124;2022-08-21T21:21:09;8.35;;;2.78;;
25980;SDS011;13772;52.996;9.124;2022-08-21T21:23:44;9.85;;;2.65;;
25980;SDS011;13772;52.996;9.124;2022-08-21T21:28:58;9.38;;;2.53;;
25980;SDS011;13772;52.996;9.124;2022-08-21T21:31:27;5.43;;;2.10;;
25980;SDS011;13772;52.996;9.124;2022-08-21T21:33:52;7.00;;;2.22;;
25980;SDS011;13772;52.996;9.124;2022-08-21T21:36:24;8.32;;;2.58;;
25980;SDS011;13772;52.996;9.124;2022-08-21T21:38:56;10.55;;;2.65;;
25980;SDS011;13772;52.996;9.124;2022-08-21T21:43:55;10.60;;;2.63;;
25980;SDS011;13772;52.996;9.124;2022-08-21T21:46:25;11.52;;;2.65;;
25980;SDS011;13772;52.996;9.124;2022-08-21T21:54:33;8.95;;;2.58;;
25980;SDS011;13772;52.996;9.124;2022-08-21T22:02:01;9.10;;;2.58;;
25980;SDS011;13772;52.996;9.124;2022-08-21T22:04:38;12.20;;;3.25;;
25980;SDS011;13772;52.996;9.124;2022-08-21T22:07:08;10.32;;;2.50;;
